Time;durP1;ratioP1;P1;durP2;ratioP2;P2;SDS_P1;SDS_P2;PMS_P1;PMS_P2;Temp;Humidity;BMP_temperature;BMP_pressure;BME280_temperature;BME280_humidity;BME280_pressure;Samples;Min_cycle;Max_cycle;Signal;HPM_P1;HPM_P2
2023/12/19 00:00:46;;;;;;;13.52;7.43;;;7.90;74.60;;;;;;5055190;28;20033;-63
2023/12/19 00:03:12;;;;;;;14.07;7.63;;;7.90;74.90;;;;;;5055167;28;20037;-63
2023/12/19 00:05:41;;;;;;;14.18;7.45;;;7.90;74.80;;;;;;5054959;28;20036;-64
2023/12/19 00:08:07;;;;;;;13.50;6.75;;;7.80;74.90;;;;;;5055298;28;20370;-63
2023/12/19 00:10:33;;;;;;;13.50;7.47;;;7.80;75.10;;;;;;5054939;28;20028;-64
2023/12/19 00:13:00;;;;;;;11.82;6.30;;;7.70;75.30;;;;;;5055326;28;20032;-63
2023/12/19 00:15:26;;;;;;;13.45;7.18;;;7.70;75.20;;;;;;5054981;28;20025;-64
2023/12/19 00:17:51;;;;;;;15.93;7.30;;;7.70;75.20;;;;;;5054704;28;20108;-63
2023/12/19 00:20:17;;;;;;;12.90;7.22;;;7.70;75.50;;;;;;5055036;28;20029;-63
2023/12/19 00:22:43;;;;;;;16.83;7.50;;;7.70;75.90;;;;;;5054599;28;20025;-64
2023/12/19 00:25:09;;;;;;;13.80;7.35;;;7.70;75.90;;;;;;5055059;28;20071;-63
2023/12/19 00:27:34;;;;;;;13.32;7.00;;;7.60;75.80;;;;;;5054598;28;20037;-63
2023/12/19 00:30:00;;;;;;;11.23;7.32;;;7.60;75.80;;;;;;5055327;28;20133;-64
2023/12/19 00:32:26;;;;;;;12.70;7.53;;;7.60;76.10;;;;;;5054793;28;20031;-64
2023/12/19 00:34:52;;;;;;;13.65;7.93;;;7.60;76.30;;;;;;5054656;28;20045;-64
2023/12/19 00:37:17;;;;;;;13.38;7.57;;;7.50;76.30;;;;;;5054686;28;20029;-64
2023/12/19 00:39:43;;;;;;;13.45;6.85;;;7.50;76.60;;;;;;5054146;28;20441;-64
2023/12/19 00:42:08;;;;;;;10.75;6.60;;;7.40;76.50;;;;;;5054627;28;20032;-64
2023/12/19 00:44:37;;;;;;;11.27;6.30;;;7.40;76.80;;;;;;5054465;28;20061;-65
2023/12/19 00:47:03;;;;;;;10.60;5.90;;;7.40;77.10;;;;;;5054958;28;20454;-64
2023/12/19 00:49:29;;;;;;;8.55;5.40;;;7.40;76.20;;;;;;5055021;28;20419;-64
2023/12/19 00:51:55;;;;;;;11.38;6.63;;;7.50;75.40;;;;;;5054511;28;20094;-63
2023/12/19 00:54:21;;;;;;;12.70;6.53;;;7.40;75.80;;;;;;5054625;28;20025;-63
2023/12/19 00:56:47;;;;;;;11.88;6.68;;;7.40;76.30;;;;;;5067715;28;20109;-64
2023/12/19 00:59:12;;;;;;;12.30;6.18;;;7.40;76.00;;;;;;5074360;28;20485;-64
2023/12/19 01:01:38;;;;;;;14.98;6.88;;;7.40;75.90;;;;;;5074126;28;20078;-64
2023/12/19 01:04:04;;;;;;;12.68;6.72;;;7.30;76.50;;;;;;5074091;28;20021;-64
2023/12/19 01:06:31;;;;;;;11.18;6.40;;;7.30;76.90;;;;;;5074300;28;20052;-63
2023/12/19 01:08:57;;;;;;;12.05;6.25;;;7.30;77.20;;;;;;5072670;28;20029;-63
2023/12/19 01:11:22;;;;;;;13.07;5.93;;;7.30;76.60;;;;;;5074276;28;20020;-63
2023/12/19 01:13:48;;;;;;;22.83;7.88;;;7.30;76.20;;;;;;5073885;28;20028;-63
2023/12/19 01:16:14;;;;;;;9.90;6.32;;;7.30;75.50;;;;;;5072859;28;20021;-63
2023/12/19 01:18:40;;;;;;;14.95;6.88;;;7.20;75.40;;;;;;5073736;28;20095;-64
2023/12/19 01:21:05;;;;;;;12.52;6.82;;;7.20;76.40;;;;;;5074411;28;20024;-63
2023/12/19 01:23:31;;;;;;;16.10;7.30;;;7.10;76.60;;;;;;5073771;28;20108;-63
2023/12/19 01:25:57;;;;;;;13.85;6.40;;;7.10;77.30;;;;;;5073546;28;20032;-63
2023/12/19 01:28:22;;;;;;;11.55;5.65;;;7.00;77.20;;;;;;5073899;28;20072;-63
2023/12/19 01:30:48;;;;;;;11.43;5.72;;;7.00;77.00;;;;;;5073563;28;20024;-63
2023/12/19 01:33:14;;;;;;;11.70;5.43;;;7.00;76.40;;;;;;5073652;28;20025;-64
2023/12/19 01:35:39;;;;;;;13.18;5.45;;;7.00;76.10;;;;;;5072180;28;20114;-64
2023/12/19 01:38:05;;;;;;;9.93;5.90;;;7.00;76.00;;;;;;5073459;28;20031;-63
2023/12/19 01:40:31;;;;;;;8.23;4.30;;;6.90;76.50;;;;;;5073767;28;20025;-63
2023/12/19 01:43:00;;;;;;;6.43;3.53;;;6.90;76.20;;;;;;5073152;28;20135;-63
2023/12/19 01:45:28;;;;;;;7.57;3.00;;;7.00;75.40;;;;;;5073286;28;20146;-64
2023/12/19 01:47:54;;;;;;;4.57;2.30;;;7.00;74.60;;;;;;5073097;28;20032;-64
2023/12/19 01:50:20;;;;;;;4.65;2.50;;;7.10;73.80;;;;;;5073516;28;20121;-63
2023/12/19 01:52:50;;;;;;;6.38;3.78;;;7.10;73.00;;;;;;5073229;28;20025;-64
2023/12/19 01:55:17;;;;;;;10.10;5.65;;;7.10;72.50;;;;;;5073243;28;20025;-63
2023/12/19 01:57:44;;;;;;;10.27;6.15;;;7.20;74.00;;;;;;5072739;28;20112;-65
2023/12/19 02:00:12;;;;;;;11.63;7.00;;;7.30;74.70;;;;;;5072937;28;20052;-63
2023/12/19 02:02:38;;;;;;;14.57;7.63;;;7.20;74.90;;;;;;5073238;28;20029;-64
2023/12/19 02:05:04;;;;;;;15.60;8.30;;;7.20;75.80;;;;;;5073221;28;20077;-63
2023/12/19 02:07:30;;;;;;;13.57;8.50;;;7.20;76.40;;;;;;5073146;28;20037;-63
2023/12/19 02:09:55;;;;;;;17.95;9.43;;;7.20;77.10;;;;;;5072657;28;20025;-63
2023/12/19 02:12:21;;;;;;;17.20;9.10;;;7.20;77.20;;;;;;5073155;28;20033;-63
2023/12/19 02:14:48;;;;;;;15.27;8.05;;;7.10;78.30;;;;;;5072348;28;20073;-63
2023/12/19 02:17:16;;;;;;;14.80;8.15;;;7.00;78.20;;;;;;5067084;28;20520;-64
2023/12/19 02:19:46;;;;;;;14.00;8.45;;;7.00;78.80;;;;;;5052347;28;20033;-64
2023/12/19 02:22:12;;;;;;;13.20;8.05;;;6.90;79.30;;;;;;5052967;28;20436;-64
2023/12/19 02:24:38;;;;;;;14.80;8.52;;;6.90;79.90;;;;;;5052529;28;20208;-63
2023/12/19 02:27:04;;;;;;;15.18;8.68;;;6.80;79.90;;;;;;5051967;28;20036;-63
2023/12/19 02:29:30;;;;;;;15.20;8.63;;;6.70;80.50;;;;;;5052501;28;20090;-64
2023/12/19 02:31:57;;;;;;;14.65;8.30;;;6.60;80.70;;;;;;5052328;28;20021;-63
2023/12/19 02:34:23;;;;;;;17.33;8.55;;;6.50;81.30;;;;;;5052747;28;20039;-63
2023/12/19 02:36:49;;;;;;;16.38;8.63;;;6.40;81.80;;;;;;5052451;28;20495;-64
2023/12/19 02:39:15;;;;;;;15.80;8.75;;;6.40;82.20;;;;;;5052799;28;20028;-64
2023/12/19 02:41:40;;;;;;;15.77;9.10;;;6.40;82.90;;;;;;5052687;28;20308;-64
2023/12/19 02:44:06;;;;;;;12.48;8.27;;;6.30;82.80;;;;;;5052267;28;20029;-63
2023/12/19 02:46:32;;;;;;;15.52;9.25;;;6.20;83.40;;;;;;5053362;28;20024;-64
2023/12/19 02:48:58;;;;;;;14.00;8.63;;;6.20;83.40;;;;;;5051712;28;20033;-63
2023/12/19 02:51:25;;;;;;;12.80;7.25;;;6.20;83.60;;;;;;5052291;28;20071;-63
2023/12/19 02:53:51;;;;;;;14.15;7.53;;;6.10;83.80;;;;;;5051906;28;20033;-64
2023/12/19 02:56:16;;;;;;;12.02;6.95;;;6.10;83.40;;;;;;5052314;28;20025;-63
2023/12/19 02:58:42;;;;;;;13.27;7.13;;;6.10;83.00;;;;;;5051739;28;20041;-68
2023/12/19 03:01:08;;;;;;;13.20;8.05;;;6.10;83.10;;;;;;5052186;28;20025;-63
2023/12/19 03:03:34;;;;;;;13.32;7.85;;;6.00;83.10;;;;;;5052158;28;20159;-63
2023/12/19 03:06:00;;;;;;;10.77;6.57;;;6.00;83.60;;;;;;5051470;28;20116;-63
2023/12/19 03:08:26;;;;;;;12.57;6.72;;;6.00;83.70;;;;;;5052025;28;20060;-63
2023/12/19 03:10:52;;;;;;;17.33;6.60;;;6.00;83.50;;;;;;5051729;28;20021;-64
2023/12/19 03:13:18;;;;;;;10.32;5.95;;;5.90;83.50;;;;;;5051680;28;20049;-64
2023/12/19 03:16:02;;;;;;;11.23;6.22;;;6.00;83.50;;;;;;5051749;28;20473;-69
2023/12/19 03:18:28;;;;;;;12.02;7.05;;;6.00;83.30;;;;;;5051665;28;20389;-64
2023/12/19 03:20:54;;;;;;;10.20;6.28;;;5.90;83.90;;;;;;5051717;28;20025;-64
2023/12/19 03:23:21;;;;;;;13.45;7.10;;;5.90;83.90;;;;;;5052162;28;20108;-63
2023/12/19 03:25:46;;;;;;;10.60;6.97;;;5.90;84.20;;;;;;5051276;28;20116;-64
2023/12/19 03:28:12;;;;;;;12.98;6.70;;;5.90;84.00;;;;;;5051790;28;20112;-64
2023/12/19 03:30:38;;;;;;;11.10;6.40;;;5.80;84.50;;;;;;5051912;28;20025;-64
2023/12/19 03:33:03;;;;;;;11.13;5.85;;;5.80;84.10;;;;;;5051017;28;20025;-64
2023/12/19 03:35:29;;;;;;;10.75;6.13;;;5.80;84.20;;;;;;5051608;28;20052;-63
2023/12/19 03:37:55;;;;;;;10.90;5.72;;;5.80;84.30;;;;;;5051340;28;20374;-63
2023/12/19 03:40:20;;;;;;;11.15;5.63;;;5.80;84.30;;;;;;5051716;28;20032;-63
2023/12/19 03:42:46;;;;;;;9.27;5.30;;;5.80;84.50;;;;;;5051021;28;20083;-64
2023/12/19 03:45:12;;;;;;;9.15;5.38;;;5.80;84.60;;;;;;5051435;28;20362;-63
2023/12/19 03:47:38;;;;;;;12.23;5.65;;;5.80;84.40;;;;;;5051742;28;20482;-63
2023/12/19 03:50:08;;;;;;;9.32;4.97;;;5.90;84.50;;;;;;5051658;28;20389;-63
2023/12/19 03:52:33;;;;;;;7.03;4.03;;;5.90;84.20;;;;;;5051644;28;20407;-63
2023/12/19 03:54:59;;;;;;;8.80;5.18;;;6.00;83.40;;;;;;5050906;28;20059;-64
2023/12/19 03:57:26;;;;;;;7.97;4.22;;;6.00;82.70;;;;;;5051674;28;20056;-63
2023/12/19 03:59:52;;;;;;;6.60;4.38;;;6.00;82.40;;;;;;5051058;28;20056;-64
2023/12/19 04:02:18;;;;;;;9.18;4.85;;;6.00;82.30;;;;;;5051573;28;20120;-64
2023/12/19 04:04:43;;;;;;;8.30;4.43;;;6.00;82.20;;;;;;5051872;28;20466;-64
2023/12/19 04:07:09;;;;;;;8.93;5.10;;;5.90;82.60;;;;;;5051117;28;20481;-64
2023/12/19 04:09:34;;;;;;;8.90;5.03;;;5.90;82.80;;;;;;5051598;28;20025;-64
2023/12/19 04:12:02;;;;;;;9.68;4.80;;;5.90;82.70;;;;;;5051074;28;20454;-62
2023/12/19 04:14:29;;;;;;;9.40;4.82;;;5.90;82.80;;;;;;5051504;28;20059;-64
2023/12/19 04:16:55;;;;;;;11.75;5.70;;;5.90;82.70;;;;;;5050968;28;20035;-64
2023/12/19 04:19:21;;;;;;;7.80;5.03;;;5.90;82.70;;;;;;5051472;28;20469;-64
2023/12/19 04:21:47;;;;;;;7.97;5.07;;;5.90;83.30;;;;;;5051672;28;20082;-64
2023/12/19 04:24:13;;;;;;;6.95;4.40;;;6.00;83.30;;;;;;5049772;28;20032;-63
2023/12/19 04:26:39;;;;;;;6.80;4.32;;;6.00;82.90;;;;;;5050940;28;20104;-64
2023/12/19 04:29:05;;;;;;;8.95;5.00;;;5.90;82.50;;;;;;5050938;28;20208;-63
2023/12/19 04:31:31;;;;;;;7.32;5.20;;;5.90;82.50;;;;;;5051637;28;20472;-63
2023/12/19 04:33:57;;;;;;;6.88;4.80;;;5.90;82.80;;;;;;5051178;28;20351;-63
2023/12/19 04:36:23;;;;;;;14.13;6.30;;;5.90;82.60;;;;;;5051328;28;20025;-63
2023/12/19 04:38:48;;;;;;;8.38;5.28;;;5.90;82.70;;;;;;5051142;28;20029;-63
2023/12/19 04:41:14;;;;;;;10.00;5.65;;;5.90;82.50;;;;;;5050918;28;20040;-63
2023/12/19 04:43:40;;;;;;;9.80;5.93;;;5.80;82.50;;;;;;5052413;28;20155;-63
2023/12/19 04:46:08;;;;;;;14.10;6.10;;;5.80;82.80;;;;;;5054408;28;20032;-63
2023/12/19 04:48:34;;;;;;;11.73;6.15;;;5.90;83.30;;;;;;5054611;28;20037;-63
2023/12/19 04:51:00;;;;;;;11.38;6.18;;;6.00;83.80;;;;;;5054216;28;20076;-64
2023/12/19 04:53:26;;;;;;;10.20;5.85;;;6.00;83.40;;;;;;5054270;28;20130;-64
2023/12/19 04:55:51;;;;;;;11.93;6.60;;;6.00;82.80;;;;;;5063118;28;20032;-64
2023/12/19 04:58:18;;;;;;;8.82;6.30;;;6.00;82.50;;;;;;5074189;28;20491;-63
2023/12/19 05:00:43;;;;;;;11.80;6.70;;;6.00;82.30;;;;;;5074443;28;20063;-63
2023/12/19 05:03:09;;;;;;;14.00;5.88;;;6.00;82.60;;;;;;5074088;28;20056;-63
2023/12/19 05:05:35;;;;;;;15.25;7.28;;;5.90;82.00;;;;;;5074794;28;20476;-63
2023/12/19 05:08:00;;;;;;;10.60;6.22;;;5.90;82.10;;;;;;5074041;28;20105;-63
2023/12/19 05:10:26;;;;;;;10.75;6.38;;;6.00;82.40;;;;;;5074241;28;20358;-64
2023/12/19 05:12:52;;;;;;;11.52;6.90;;;6.00;82.20;;;;;;5074126;28;20059;-68
2023/12/19 05:15:17;;;;;;;12.68;7.07;;;5.90;82.10;;;;;;5074356;28;20025;-64
2023/12/19 05:17:43;;;;;;;11.90;7.18;;;5.90;82.40;;;;;;5074056;28;20059;-63
2023/12/19 05:20:09;;;;;;;13.27;6.88;;;5.90;82.50;;;;;;5073648;28;20491;-63
2023/12/19 05:22:35;;;;;;;11.70;6.97;;;5.90;82.30;;;;;;5074079;28;20028;-64
2023/12/19 05:25:00;;;;;;;13.15;7.40;;;5.80;82.60;;;;;;5073346;28;20021;-63
2023/12/19 05:27:26;;;;;;;14.63;7.80;;;5.80;82.40;;;;;;5074389;28;20040;-64
2023/12/19 05:29:52;;;;;;;12.88;7.22;;;5.70;83.10;;;;;;5074020;28;20389;-64
2023/12/19 05:32:17;;;;;;;14.85;7.70;;;5.70;83.30;;;;;;5073403;28;20123;-64
2023/12/19 05:34:43;;;;;;;20.45;8.50;;;5.70;83.60;;;;;;5072700;28;20123;-64
2023/12/19 05:37:08;;;;;;;12.27;6.40;;;5.60;84.00;;;;;;5073832;28;20040;-64
2023/12/19 05:39:34;;;;;;;11.48;5.97;;;5.60;83.90;;;;;;5073557;28;20035;-63
2023/12/19 05:42:00;;;;;;;10.48;6.25;;;5.50;83.80;;;;;;5073348;28;20389;-64
2023/12/19 05:44:25;;;;;;;11.90;6.55;;;5.50;84.00;;;;;;5073398;28;20028;-65
2023/12/19 05:46:52;;;;;;;11.68;6.32;;;5.40;84.20;;;;;;5073604;28;20036;-63
2023/12/19 05:49:18;;;;;;;11.90;6.00;;;5.40;84.10;;;;;;5073239;28;20082;-64
2023/12/19 05:51:44;;;;;;;10.10;6.10;;;5.30;84.70;;;;;;5073431;28;20385;-64
2023/12/19 05:54:10;;;;;;;15.30;6.95;;;5.20;84.70;;;;;;5072907;28;20025;-64
2023/12/19 05:56:36;;;;;;;8.80;5.70;;;5.20;84.80;;;;;;5072508;28;20028;-64
2023/12/19 05:59:02;;;;;;;10.18;6.05;;;5.20;85.20;;;;;;5072816;28;20045;-64
2023/12/19 06:01:28;;;;;;;10.70;6.18;;;5.20;86.00;;;;;;5072265;28;20469;-64
2023/12/19 06:03:54;;;;;;;11.80;5.80;;;5.10;85.70;;;;;;5073659;28;20075;-63
2023/12/19 06:06:20;;;;;;;10.68;6.07;;;5.10;85.60;;;;;;5072904;28;20527;-63
2023/12/19 06:08:47;;;;;;;11.30;6.30;;;5.10;86.20;;;;;;5073523;28;20052;-63
2023/12/19 06:11:13;;;;;;;12.55;5.60;;;5.10;86.70;;;;;;5072539;28;20094;-64
2023/12/19 06:13:39;;;;;;;9.68;5.65;;;5.10;86.80;;;;;;5073119;28;20432;-63
2023/12/19 06:16:05;;;;;;;10.23;5.70;;;5.10;87.10;;;;;;5072606;28;20025;-64
2023/12/19 06:18:32;;;;;;;13.82;6.55;;;5.00;87.30;;;;;;5073049;28;20040;-64
2023/12/19 06:20:59;;;;;;;10.20;5.88;;;5.00;88.00;;;;;;5072875;28;20028;-68
2023/12/19 06:23:26;;;;;;;13.20;6.40;;;5.00;88.00;;;;;;5072842;28;20016;-64
2023/12/19 06:25:52;;;;;;;14.25;6.55;;;5.00;88.30;;;;;;5072967;28;20134;-64
2023/12/19 06:28:18;;;;;;;11.48;6.57;;;5.00;88.80;;;;;;5067173;28;20144;-64
2023/12/19 06:30:44;;;;;;;15.35;6.95;;;5.00;89.10;;;;;;5052637;28;20021;-63
2023/12/19 06:33:09;;;;;;;14.38;6.70;;;4.90;89.00;;;;;;5052238;28;20032;-63
2023/12/19 06:35:40;;;;;;;14.20;7.85;;;4.90;89.10;;;;;;5051177;28;20048;-64
2023/12/19 06:38:06;;;;;;;13.13;6.78;;;4.90;89.30;;;;;;5052210;28;20033;-64
2023/12/19 06:40:32;;;;;;;14.32;6.32;;;4.90;89.10;;;;;;5052648;28;20366;-63
2023/12/19 06:42:57;;;;;;;16.35;5.90;;;4.90;89.00;;;;;;5052587;28;20032;-63
2023/12/19 06:45:23;;;;;;;11.18;5.80;;;4.90;89.30;;;;;;5052295;28;20082;-64
2023/12/19 06:47:48;;;;;;;11.15;6.60;;;4.80;89.80;;;;;;5052517;28;20136;-64
2023/12/19 06:50:16;;;;;;;17.55;7.07;;;4.80;89.80;;;;;;5055019;28;20570;-64
2023/12/19 06:52:41;;;;;;;13.95;7.72;;;4.80;90.00;;;;;;5052080;28;20386;-63
2023/12/19 06:55:11;;;;;;;13.93;6.30;;;4.80;90.20;;;;;;5052167;28;20028;-64
2023/12/19 06:57:37;;;;;;;23.75;7.07;;;4.80;90.50;;;;;;5052668;28;20079;-63
2023/12/19 07:00:06;;;;;;;18.15;7.68;;;4.90;91.00;;;;;;5051420;28;20500;-63
2023/12/19 07:02:31;;;;;;;14.05;7.38;;;4.90;91.30;;;;;;5052241;28;20043;-63
2023/12/19 07:04:57;;;;;;;17.13;7.55;;;4.90;91.20;;;;;;5051798;28;20025;-63
2023/12/19 07:07:24;;;;;;;18.45;8.23;;;4.90;91.20;;;;;;5050772;28;20028;-64
2023/12/19 07:09:50;;;;;;;20.80;8.95;;;4.90;91.20;;;;;;5052084;28;20365;-64
2023/12/19 07:12:15;;;;;;;23.08;10.07;;;4.90;91.60;;;;;;5050424;28;20025;-63
2023/12/19 07:14:41;;;;;;;33.85;10.10;;;4.90;91.40;;;;;;5052099;28;20127;-64
2023/12/19 07:17:07;;;;;;;29.90;9.43;;;4.90;91.50;;;;;;5050504;28;20044;-64
2023/12/19 07:19:33;;;;;;;27.50;9.75;;;4.90;91.60;;;;;;5051678;28;20025;-63
2023/12/19 07:21:59;;;;;;;29.50;8.73;;;4.90;91.50;;;;;;5051844;28;20029;-64
2023/12/19 07:24:25;;;;;;;21.90;8.05;;;4.90;91.70;;;;;;5051451;28;20024;-64
2023/12/19 07:26:52;;;;;;;33.47;9.32;;;5.00;91.70;;;;;;5051735;28;20061;-63
2023/12/19 07:29:18;;;;;;;32.95;8.95;;;5.00;91.40;;;;;;5051440;28;20021;-64
2023/12/19 07:31:43;;;;;;;28.20;9.27;;;5.00;91.40;;;;;;5051734;28;20538;-64
2023/12/19 07:34:09;;;;;;;18.13;6.68;;;5.00;91.50;;;;;;5051366;28;20021;-63
2023/12/19 07:36:35;;;;;;;18.98;7.90;;;5.00;91.50;;;;;;5051753;28;20025;-64
2023/12/19 07:39:01;;;;;;;16.95;7.63;;;5.10;91.20;;;;;;5051824;28;20531;-63
2023/12/19 07:41:27;;;;;;;20.77;7.78;;;5.10;91.20;;;;;;5051366;28;20442;-63
2023/12/19 07:43:55;;;;;;;18.13;7.63;;;5.10;91.00;;;;;;5051643;28;20025;-63
2023/12/19 07:46:21;;;;;;;20.50;8.40;;;5.10;90.80;;;;;;5051208;28;20029;-63
2023/12/19 07:48:47;;;;;;;13.63;7.05;;;5.10;90.60;;;;;;5051485;28;20154;-62
2023/12/19 07:51:17;;;;;;;14.70;7.18;;;5.10;90.50;;;;;;5051150;28;20075;-64
2023/12/19 07:53:43;;;;;;;15.77;7.80;;;5.10;90.40;;;;;;5051463;28;20423;-62
2023/12/19 07:56:08;;;;;;;15.63;8.18;;;5.10;90.40;;;;;;5050903;28;20024;-63
2023/12/19 07:58:34;;;;;;;18.75;7.50;;;5.10;90.60;;;;;;5051078;28;20080;-64
2023/12/19 08:01:00;;;;;;;17.30;7.15;;;5.10;90.50;;;;;;5051064;28;20033;-63
2023/12/19 08:03:29;;;;;;;12.15;7.45;;;5.10;90.30;;;;;;5050992;28;20032;-64
2023/12/19 08:05:56;;;;;;;13.07;7.13;;;5.10;90.30;;;;;;5051574;28;20465;-64
2023/12/19 08:08:26;;;;;;;15.60;8.02;;;5.10;90.30;;;;;;5050876;28;20082;-63
2023/12/19 08:10:52;;;;;;;15.32;7.53;;;5.10;90.30;;;;;;5051296;28;20025;-63
2023/12/19 08:13:21;;;;;;;19.02;7.95;;;5.10;90.40;;;;;;5051036;28;20036;-62
2023/12/19 08:15:48;;;;;;;16.85;7.63;;;5.10;90.20;;;;;;5051407;28;20032;-63
2023/12/19 08:18:14;;;;;;;17.17;8.70;;;5.10;90.20;;;;;;5051643;28;20033;-63
2023/12/19 08:20:42;;;;;;;15.52;7.95;;;5.20;90.40;;;;;;5054998;28;20029;-63
2023/12/19 08:23:07;;;;;;;12.20;8.10;;;5.30;90.10;;;;;;5054430;28;20035;-66
2023/12/19 08:25:33;;;;;;;14.90;9.05;;;5.30;90.10;;;;;;5055098;28;20020;-64
2023/12/19 08:27:59;;;;;;;13.90;8.80;;;5.30;89.50;;;;;;5054948;28;20037;-63
2023/12/19 08:30:29;;;;;;;16.00;9.10;;;5.30;88.80;;;;;;5054334;28;20537;-64
2023/12/19 08:32:54;;;;;;;16.17;8.35;;;5.30;89.10;;;;;;5054938;28;20041;-63
2023/12/19 08:35:21;;;;;;;17.90;9.10;;;5.40;88.60;;;;;;5054363;28;20370;-63
2023/12/19 08:37:47;;;;;;;17.90;8.52;;;5.30;88.50;;;;;;5054806;28;20037;-63
2023/12/19 08:40:13;;;;;;;17.38;8.70;;;5.40;88.70;;;;;;5054369;28;20025;-64
2023/12/19 08:42:40;;;;;;;18.30;9.13;;;5.40;88.40;;;;;;5054422;28;20025;-64
2023/12/19 08:45:13;;;;;;;17.65;9.02;;;5.40;88.30;;;;;;5054893;28;20523;-63
2023/12/19 08:47:38;;;;;;;16.42;9.23;;;5.30;88.00;;;;;;5054399;28;20033;-64
2023/12/19 08:50:08;;;;;;;13.95;8.27;;;5.40;88.30;;;;;;5054789;28;20036;-63
2023/12/19 08:52:33;;;;;;;12.20;8.00;;;5.40;88.20;;;;;;5066661;28;20029;-63
2023/12/19 08:55:00;;;;;;;14.95;8.20;;;5.30;88.10;;;;;;5074360;28;20469;-63
2023/12/19 08:57:26;;;;;;;12.38;7.05;;;5.40;88.70;;;;;;5073837;28;20054;-63
2023/12/19 08:59:51;;;;;;;14.52;7.47;;;5.40;88.70;;;;;;5074339;28;20045;-63
2023/12/19 09:02:17;;;;;;;15.60;8.40;;;5.40;88.40;;;;;;5073948;28;20454;-63
2023/12/19 09:04:43;;;;;;;15.57;8.05;;;5.50;88.60;;;;;;5073999;28;20461;-63
2023/12/19 09:07:08;;;;;;;14.82;7.75;;;5.50;88.60;;;;;;5074158;28;20086;-63
2023/12/19 09:09:34;;;;;;;22.77;9.68;;;5.50;88.50;;;;;;5073488;28;20044;-63
2023/12/19 09:11:59;;;;;;;21.83;8.30;;;5.60;88.50;;;;;;5074054;28;20104;-63
2023/12/19 09:14:25;;;;;;;15.82;8.60;;;5.60;88.50;;;;;;5073875;28;20032;-64
2023/12/19 09:16:51;;;;;;;18.27;8.45;;;5.70;88.00;;;;;;5074222;28;20475;-63
2023/12/19 09:19:17;;;;;;;18.75;7.97;;;5.70;87.90;;;;;;5073520;28;20047;-63
2023/12/19 09:21:43;;;;;;;16.23;9.15;;;5.70;87.70;;;;;;5074154;28;20024;-63
2023/12/19 09:24:09;;;;;;;16.30;7.88;;;5.80;87.70;;;;;;5073952;28;20048;-64
2023/12/19 09:26:38;;;;;;;17.30;7.32;;;5.80;87.40;;;;;;5073567;28;20381;-64
2023/12/19 09:29:05;;;;;;;13.43;6.93;;;5.90;87.40;;;;;;5073726;28;20051;-64
2023/12/19 09:31:30;;;;;;;22.75;7.30;;;5.90;87.20;;;;;;5072545;28;20521;-64
2023/12/19 09:33:56;;;;;;;14.35;7.50;;;5.90;87.10;;;;;;5073588;28;20112;-64
2023/12/19 09:36:24;;;;;;;16.95;7.88;;;6.00;87.50;;;;;;5073211;28;20027;-64
2023/12/19 09:38:50;;;;;;;15.15;7.30;;;6.00;86.80;;;;;;5073799;28;20035;-63
2023/12/19 09:41:17;;;;;;;14.82;6.78;;;6.10;86.50;;;;;;5073056;28;20469;-63
2023/12/19 09:43:43;;;;;;;16.15;7.15;;;6.20;86.80;;;;;;5073552;28;20039;-63
2023/12/19 09:46:10;;;;;;;29.20;8.93;;;6.20;86.30;;;;;;5073540;28;20099;-63
2023/12/19 09:48:37;;;;;;;15.75;8.02;;;6.30;86.40;;;;;;5072958;28;20066;-63
2023/12/19 09:51:04;;;;;;;26.23;9.25;;;6.40;86.50;;;;;;5073588;28;20029;-63
2023/12/19 09:53:31;;;;;;;16.77;7.68;;;6.40;86.90;;;;;;5073134;28;20037;-63
2023/12/19 09:55:59;;;;;;;15.75;9.00;;;6.50;87.00;;;;;;5073351;28;20035;-62
2023/12/19 09:58:25;;;;;;;16.70;9.00;;;6.60;87.10;;;;;;5072718;28;20053;-62
2023/12/19 10:00:52;;;;;;;13.30;7.95;;;6.70;87.20;;;;;;5073537;28;20032;-62
2023/12/19 10:03:18;;;;;;;16.75;8.73;;;6.70;86.80;;;;;;5073008;28;20032;-64
2023/12/19 10:05:44;;;;;;;17.83;8.10;;;6.90;86.70;;;;;;5073236;28;20385;-63
2023/12/19 10:08:10;;;;;;;13.40;7.93;;;7.00;86.00;;;;;;5073028;28;20172;-64
2023/12/19 10:10:53;;;;;;;14.05;8.68;;;7.20;85.80;;;;;;5072723;28;20025;-63
2023/12/19 10:13:37;;;;;;;15.70;8.05;;;7.40;84.50;;;;;;5072637;28;20021;-64
2023/12/19 10:16:08;;;;;;;13.95;8.63;;;7.60;84.20;;;;;;5072879;28;20059;-63
2023/12/19 10:18:34;;;;;;;12.95;8.00;;;7.80;82.90;;;;;;5072623;28;20384;-64
2023/12/19 10:21:11;;;;;;;17.50;8.05;;;8.00;82.50;;;;;;5072731;28;20029;-65
2023/12/19 10:23:37;;;;;;;17.17;8.27;;;8.20;81.70;;;;;;5072520;28;20025;-64
2023/12/19 10:26:03;;;;;;;15.25;8.68;;;8.40;80.80;;;;;;5072806;28;20028;-63
2023/12/19 10:28:30;;;;;;;14.18;7.95;;;8.60;79.70;;;;;;5072115;28;20127;-63
2023/12/19 10:31:12;;;;;;;13.32;7.35;;;8.80;78.90;;;;;;5056660;28;20502;-64
2023/12/19 10:33:46;;;;;;;14.38;7.20;;;9.00;78.10;;;;;;5052299;28;20033;-64
2023/12/19 10:36:28;;;;;;;13.23;7.35;;;9.20;76.40;;;;;;5052891;28;20390;-64
2023/12/19 10:39:02;;;;;;;17.00;8.15;;;9.40;75.10;;;;;;5052467;28;20056;-63
2023/12/19 10:41:31;;;;;;;16.17;7.20;;;9.60;73.90;;;;;;5052134;28;20063;-64
2023/12/19 10:43:59;;;;;;;16.15;9.20;;;9.70;72.90;;;;;;5052415;28;20488;-64
2023/12/19 10:46:31;;;;;;;16.40;8.35;;;9.90;73.10;;;;;;5052209;28;20040;-64
2023/12/19 10:49:01;;;;;;;28.58;9.77;;;10.10;72.00;;;;;;5051924;28;20048;-64
2023/12/19 10:51:32;;;;;;;16.15;9.82;;;10.30;72.30;;;;;;5064909;28;20028;-65
2023/12/19 10:54:01;;;;;;;18.88;9.52;;;10.40;71.80;;;;;;5072322;28;20029;-65
2023/12/19 10:56:37;;;;;;;17.10;9.52;;;10.50;71.20;;;;;;5071652;28;20120;-64
2023/12/19 10:59:07;;;;;;;22.13;10.57;;;10.60;69.90;;;;;;5072277;28;20382;-65
2023/12/19 11:01:40;;;;;;;15.40;9.38;;;10.80;70.10;;;;;;5071869;28;20048;-65
2023/12/19 11:04:23;;;;;;;19.38;8.43;;;10.90;69.50;;;;;;5072693;28;20056;-64
2023/12/19 11:06:55;;;;;;;17.15;8.85;;;11.00;69.00;;;;;;5072675;28;20050;-64
2023/12/19 11:09:28;;;;;;;15.80;8.88;;;11.10;67.90;;;;;;5071439;28;20472;-65
2023/12/19 11:11:54;;;;;;;16.05;8.52;;;11.20;67.70;;;;;;5072175;28;20381;-65
2023/12/19 11:14:24;;;;;;;15.90;9.95;;;11.30;68.10;;;;;;5071588;28;20070;-65
2023/12/19 11:16:57;;;;;;;18.85;9.10;;;11.40;68.20;;;;;;5071914;28;20070;-64
2023/12/19 11:19:38;;;;;;;25.25;10.68;;;11.50;67.50;;;;;;5071420;28;20028;-65
2023/12/19 11:22:14;;;;;;;22.17;10.82;;;11.60;67.80;;;;;;5071978;28;20024;-64
2023/12/19 11:25:15;;;;;;;28.05;10.90;;;11.70;67.70;;;;;;5071237;28;20469;-65
2023/12/19 11:27:47;;;;;;;;;;;11.90;67.90;;;;;;5071552;28;20480;-64
2023/12/19 11:30:32;;;;;;;20.88;9.80;;;12.00;66.80;;;;;;5072041;28;19904;-64
2023/12/19 11:32:59;;;;;;;17.05;9.32;;;12.20;65.70;;;;;;5071713;28;20028;-63
2023/12/19 11:35:29;;;;;;;23.77;10.77;;;12.20;65.30;;;;;;5071444;28;20025;-64
2023/12/19 11:38:13;;;;;;;15.60;10.60;;;12.30;65.20;;;;;;5071883;28;20028;-64
2023/12/19 11:40:45;;;;;;;30.58;10.80;;;12.40;65.40;;;;;;5071067;28;20377;-65
2023/12/19 11:43:31;;;;;;;23.15;11.65;;;12.40;65.20;;;;;;5071896;28;20116;-64
2023/12/19 11:46:17;;;;;;;19.20;11.30;;;12.50;65.50;;;;;;5071663;28;20031;-64
2023/12/19 11:48:52;;;;;;;21.88;12.90;;;12.60;65.20;;;;;;5071308;28;20033;-65
2023/12/19 11:51:45;;;;;;;17.02;12.27;;;12.70;64.90;;;;;;5071786;28;20033;-64
2023/12/19 11:54:12;;;;;;;30.10;12.10;;;12.70;64.80;;;;;;5073586;28;20082;-64
2023/12/19 11:56:41;;;;;;;26.27;13.48;;;12.80;65.10;;;;;;5075290;28;20039;-64
2023/12/19 11:59:08;;;;;;;34.55;13.85;;;12.90;66.00;;;;;;5075395;28;20056;-65
2023/12/19 12:01:41;;;;;;;51.90;16.17;;;12.90;65.30;;;;;;5075308;28;20028;-65
2023/12/19 12:04:10;;;;;;;38.80;14.32;;;13.00;65.90;;;;;;5075623;28;20025;-66
2023/12/19 12:06:39;;;;;;;38.80;14.70;;;13.10;66.30;;;;;;5074907;28;20033;-64
2023/12/19 12:09:06;;;;;;;43.88;16.77;;;13.10;66.20;;;;;;5074893;28;20469;-65
2023/12/19 12:11:52;;;;;;;58.33;17.45;;;13.30;67.00;;;;;;5075026;28;20017;-64
2023/12/19 12:14:17;;;;;;;40.00;15.23;;;13.40;67.70;;;;;;5075230;28;20032;-64
2023/12/19 12:16:43;;;;;;;58.30;18.27;;;13.40;66.70;;;;;;5074834;28;20024;-64
2023/12/19 12:19:13;;;;;;;39.95;15.23;;;13.50;67.10;;;;;;5075252;28;20350;-65
2023/12/19 12:21:47;;;;;;;25.63;14.60;;;13.50;67.20;;;;;;5074898;28;20027;-64
2023/12/19 12:24:26;;;;;;;19.45;14.05;;;13.50;64.90;;;;;;5075125;28;20264;-64
2023/12/19 12:27:09;;;;;;;26.10;14.70;;;13.60;65.30;;;;;;5067510;28;20027;-64
2023/12/19 12:29:38;;;;;;;22.80;15.43;;;13.60;64.80;;;;;;5054671;28;20025;-64
2023/12/19 12:32:04;;;;;;;20.20;14.43;;;13.70;64.30;;;;;;5054886;28;20086;-64
2023/12/19 12:34:33;;;;;;;18.50;13.65;;;13.70;64.10;;;;;;5054847;28;20033;-65
2023/12/19 12:36:58;;;;;;;19.88;13.38;;;13.70;63.80;;;;;;5054852;28;20059;-65
2023/12/19 12:39:24;;;;;;;19.40;12.93;;;13.70;63.90;;;;;;5054810;28;20054;-64
2023/12/19 12:41:49;;;;;;;18.17;13.00;;;13.70;63.70;;;;;;5054326;28;20025;-64
2023/12/19 12:44:15;;;;;;;18.77;13.00;;;13.60;63.70;;;;;;5054851;28;20032;-64
2023/12/19 12:46:46;;;;;;;22.50;15.02;;;13.60;64.00;;;;;;5054245;28;20082;-63